Jonestown, Indiana
Current Conditions -  °F | °C
As of 2:55 PM on Friday 24 Oct 2014 (Local Time) from KPRG Reporting Station
Scattered Clouds Scattered Clouds  
Wind Chill: 68°   Ceiling: Unl
Heat Index: 68°   Visibility: 10mi
Dew Point: 54°   Wind: 5mph
Humidity: 60%   Direction: 230°SW
Pressure: 30.05"   Gusts: NA
Location:  39.6513°N, 87.4607°W
Report Text: KPRG 241855Z AUTO 23004KT 10SM SCT034 SCT041 20/12 A3005 RMK AO2 T02010122
Loading
Personal Weather Stations






























Interactive Weather Map
Tropical Storm Tracking
New forecast layout! Learn more

10-Day Weather Forecast

Advertisements
Track Severe Weather on mobile